sensor_id;sensor_type;location;lat;lon;timestamp;pressure;altitude;pressure_sealevel;temperature;humidity
50349;BME280;36250;48.740;22.174;2024-03-02T00:00:22;100033.56;;;16.16;54.92
50349;BME280;36250;48.740;22.174;2024-03-02T00:02:49;100030.53;;;16.17;54.70
50349;BME280;36250;48.740;22.174;2024-03-02T00:05:22;100029.13;;;16.20;54.58
50349;BME280;36250;48.740;22.174;2024-03-02T00:10:27;100027.25;;;16.15;54.70
50349;BME280;36250;48.740;22.174;2024-03-02T00:12:57;100031.91;;;16.15;54.50
50349;BME280;36250;48.740;22.174;2024-03-02T00:15:41;100031.19;;;16.04;54.34
50349;BME280;36250;48.740;22.174;2024-03-02T00:18:10;100030.72;;;15.97;54.50
50349;BME280;36250;48.740;22.174;2024-03-02T00:20:37;100027.34;;;16.05;54.22
50349;BME280;36250;48.740;22.174;2024-03-02T00:23:03;100022.47;;;15.97;54.67
50349;BME280;36250;48.740;22.174;2024-03-02T00:25:44;100021.84;;;16.05;54.38
50349;BME280;36250;48.740;22.174;2024-03-02T00:28:32;100016.38;;;16.05;54.48
50349;BME280;36250;48.740;22.174;2024-03-02T00:31:08;100015.31;;;16.01;53.64
50349;BME280;36250;48.740;22.174;2024-03-02T00:33:40;100011.28;;;15.94;53.23
50349;BME280;36250;48.740;22.174;2024-03-02T00:36:08;100019.38;;;16.09;53.31
50349;BME280;36250;48.740;22.174;2024-03-02T00:38:34;100022.53;;;16.21;53.01
50349;BME280;36250;48.740;22.174;2024-03-02T00:41:06;100018.97;;;16.20;51.89
50349;BME280;36250;48.740;22.174;2024-03-02T00:43:45;100021.44;;;16.17;51.96
50349;BME280;36250;48.740;22.174;2024-03-02T00:46:13;100011.94;;;16.33;51.97
50349;BME280;36250;48.740;22.174;2024-03-02T00:48:46;100014.03;;;16.41;51.86
50349;BME280;36250;48.740;22.174;2024-03-02T00:51:12;100012.56;;;16.49;51.36
50349;BME280;36250;48.740;22.174;2024-03-02T00:53:38;100010.34;;;16.51;51.00
50349;BME280;36250;48.740;22.174;2024-03-02T00:56:04;100008.69;;;16.55;50.55
50349;BME280;36250;48.740;22.174;2024-03-02T00:58:34;99996.50;;;16.61;49.74
50349;BME280;36250;48.740;22.174;2024-03-02T01:00:59;99989.59;;;16.63;49.40
50349;BME280;36250;48.740;22.174;2024-03-02T01:03:24;99986.78;;;16.68;48.95
50349;BME280;36250;48.740;22.174;2024-03-02T01:05:50;99969.41;;;16.73;48.56
50349;BME280;36250;48.740;22.174;2024-03-02T01:08:15;99977.31;;;16.79;47.95
50349;BME280;36250;48.740;22.174;2024-03-02T01:10:40;99981.41;;;16.82;48.00
50349;BME280;36250;48.740;22.174;2024-03-02T01:13:06;99976.41;;;16.84;47.63
50349;BME280;36250;48.740;22.174;2024-03-02T01:15:31;99984.66;;;16.84;47.45
50349;BME280;36250;48.740;22.174;2024-03-02T01:17:56;99984.66;;;16.84;47.75
50349;BME280;36250;48.740;22.174;2024-03-02T01:20:22;99984.66;;;16.84;47.25
50349;BME280;36250;48.740;22.174;2024-03-02T01:22:47;99981.31;;;16.87;46.92
50349;BME280;36250;48.740;22.174;2024-03-02T01:25:13;99972.25;;;16.86;46.32
50349;BME280;36250;48.740;22.174;2024-03-02T01:27:38;99967.78;;;16.90;45.62
50349;BME280;36250;48.740;22.174;2024-03-02T01:30:04;99965.28;;;16.94;45.44
50349;BME280;36250;48.740;22.174;2024-03-02T01:32:30;99957.22;;;16.97;44.89
50349;BME280;36250;48.740;22.174;2024-03-02T01:34:55;99963.53;;;16.98;44.26
50349;BME280;36250;48.740;22.174;2024-03-02T01:37:21;99958.28;;;17.01;44.24
50349;BME280;36250;48.740;22.174;2024-03-02T01:39:46;99955.72;;;17.05;43.99
50349;BME280;36250;48.740;22.174;2024-03-02T01:42:12;99954.31;;;17.07;43.61
50349;BME280;36250;48.740;22.174;2024-03-02T01:44:37;99957.31;;;17.11;43.40
50349;BME280;36250;48.740;22.174;2024-03-02T01:47:02;99949.56;;;17.13;43.72
50349;BME280;36250;48.740;22.174;2024-03-02T01:49:28;99948.16;;;17.16;43.28
50349;BME280;36250;48.740;22.174;2024-03-02T01:51:53;99958.13;;;17.12;43.23
50349;BME280;36250;48.740;22.174;2024-03-02T01:54:18;99959.53;;;17.09;43.65
50349;BME280;36250;48.740;22.174;2024-03-02T01:56:44;99961.75;;;17.07;43.89
50349;BME280;36250;48.740;22.174;2024-03-02T01:59:11;99961.63;;;16.98;44.85
50349;BME280;36250;48.740;22.174;2024-03-02T02:01:38;99952.53;;;16.98;44.91
50349;BME280;36250;48.740;22.174;2024-03-02T02:04:03;99955.28;;;16.98;45.00
50349;BME280;36250;48.740;22.174;2024-03-02T02:06:29;99955.88;;;16.95;45.08
50349;BME280;36250;48.740;22.174;2024-03-02T02:08:54;99954.34;;;16.89;45.69
50349;BME280;36250;48.740;22.174;2024-03-02T02:11:19;99953.84;;;16.87;45.06
50349;BME280;36250;48.740;22.174;2024-03-02T02:13:45;99947.59;;;16.81;45.32
50349;BME280;36250;48.740;22.174;2024-03-02T02:16:10;99950.16;;;16.73;45.87
50349;BME280;36250;48.740;22.174;2024-03-02T02:18:36;99954.03;;;16.72;46.15
50349;BME280;36250;48.740;22.174;2024-03-02T02:21:02;99958.56;;;16.63;46.24
50349;BME280;36250;48.740;22.174;2024-03-02T02:23:27;99955.28;;;16.61;46.73
50349;BME280;36250;48.740;22.174;2024-03-02T02:25:53;99960.34;;;16.49;47.07
50349;BME280;36250;48.740;22.174;2024-03-02T02:28:19;99966.72;;;16.25;47.82
50349;BME280;36250;48.740;22.174;2024-03-02T02:30:44;99966.88;;;16.10;48.08
50349;BME280;36250;48.740;22.174;2024-03-02T02:33:09;99960.75;;;15.95;48.21
50349;BME280;36250;48.740;22.174;2024-03-02T02:35:35;99965.34;;;15.99;47.83
50349;BME280;36250;48.740;22.174;2024-03-02T02:38:00;99959.22;;;16.07;47.68
50349;BME280;36250;48.740;22.174;2024-03-02T02:40:27;99957.00;;;16.09;46.81
50349;BME280;36250;48.740;22.174;2024-03-02T02:42:56;99956.66;;;16.16;47.11
50349;BME280;36250;48.740;22.174;2024-03-02T02:45:21;99954.03;;;16.06;47.19
50349;BME280;36250;48.740;22.174;2024-03-02T02:47:47;99957.72;;;15.96;47.44
50349;BME280;36250;48.740;22.174;2024-03-02T02:50:12;99957.88;;;16.05;47.58
50349;BME280;36250;48.740;22.174;2024-03-02T02:52:39;99954.25;;;16.09;47.17
50349;BME280;36250;48.740;22.174;2024-03-02T02:55:07;99953.75;;;16.07;47.83
50349;BME280;36250;48.740;22.174;2024-03-02T02:57:34;99954.19;;;16.14;47.53
50349;BME280;36250;48.740;22.174;2024-03-02T03:00:07;99954.50;;;16.13;47.69
50349;BME280;36250;48.740;22.174;2024-03-02T03:02:38;99967.81;;;16.24;47.49
50349;BME280;36250;48.740;22.174;2024-03-02T03:05:11;99960.66;;;16.28;47.61
50349;BME280;36250;48.740;22.174;2024-03-02T03:07:37;99961.69;;;16.32;47.40
50349;BME280;36250;48.740;22.174;2024-03-02T03:10:03;99962.25;;;16.29;47.54
50349;BME280;36250;48.740;22.174;2024-03-02T03:12:30;99964.38;;;16.37;47.40
50349;BME280;36250;48.740;22.174;2024-03-02T03:14:56;99965.41;;;16.41;47.82
50349;BME280;36250;48.740;22.174;2024-03-02T03:17:22;99971.97;;;16.22;48.05
50349;BME280;36250;48.740;22.174;2024-03-02T03:19:48;99964.72;;;16.31;48.15
50349;BME280;36250;48.740;22.174;2024-03-02T03:22:13;99959.50;;;16.29;47.90
50349;BME280;36250;48.740;22.174;2024-03-02T03:24:39;99954.25;;;16.33;47.52
50349;BME280;36250;48.740;22.174;2024-03-02T03:27:04;99955.53;;;16.40;47.21
50349;BME280;36250;48.740;22.174;2024-03-02T03:29:29;99955.47;;;16.46;47.63
50349;BME280;36250;48.740;22.174;2024-03-02T03:31:55;99962.97;;;16.40;47.39
50349;BME280;36250;48.740;22.174;2024-03-02T03:34:20;99958.50;;;16.44;47.49
50349;BME280;36250;48.740;22.174;2024-03-02T03:36:45;99956.56;;;16.44;47.17
50349;BME280;36250;48.740;22.174;2024-03-02T03:39:11;99950.25;;;16.44;47.32
50349;BME280;36250;48.740;22.174;2024-03-02T03:41:36;99949.44;;;16.43;47.28
50349;BME280;36250;48.740;22.174;2024-03-02T03:44:01;99956.06;;;16.42;47.27
50349;BME280;36250;48.740;22.174;2024-03-02T03:46:27;99953.91;;;16.39;47.39
50349;BME280;36250;48.740;22.174;2024-03-02T03:48:52;99963.78;;;16.40;47.68
50349;BME280;36250;48.740;22.174;2024-03-02T03:51:17;99950.31;;;16.39;47.51
50349;BME280;36250;48.740;22.174;2024-03-02T03:53:43;99955.59;;;16.35;48.09
50349;BME280;36250;48.740;22.174;2024-03-02T03:56:08;99956.19;;;16.32;47.90
50349;BME280;36250;48.740;22.174;2024-03-02T03:58:33;99954.09;;;16.24;48.09
50349;BME280;36250;48.740;22.174;2024-03-02T04:00:59;99948.53;;;16.29;48.15
50349;BME280;36250;48.740;22.174;2024-03-02T04:03:24;99955.59;;;16.35;47.47
50349;BME280;36250;48.740;22.174;2024-03-02T04:05:50;99951.72;;;16.36;47.78
50349;BME280;36250;48.740;22.174;2024-03-02T04:08:15;99944.16;;;16.28;47.24
50349;BME280;36250;48.740;22.174;2024-03-02T04:10:41;99948.53;;;16.29;47.65
50349;BME280;36250;48.740;22.174;2024-03-02T04:13:07;99949.28;;;16.35;47.68
50349;BME280;36250;48.740;22.174;2024-03-02T04:15:32;99945.19;;;16.32;47.86
50349;BME280;36250;48.740;22.174;2024-03-02T04:17:58;99946.22;;;16.36;47.92
50349;BME280;36250;48.740;22.174;2024-03-02T04:20:23;99959.97;;;16.36;47.97
50349;BME280;36250;48.740;22.174;2024-03-02T04:22:48;99955.38;;;16.32;47.95
50349;BME280;36250;48.740;22.174;2024-03-02T04:25:14;99953.50;;;16.27;48.15
50349;BME280;36250;48.740;22.174;2024-03-02T04:27:39;99953.19;;;16.29;48.42
50349;BME280;36250;48.740;22.174;2024-03-02T04:30:05;99962.25;;;16.29;47.57
50349;BME280;36250;48.740;22.174;2024-03-02T04:32:30;99963.91;;;16.30;46.91
50349;BME280;36250;48.740;22.174;2024-03-02T04:34:56;99964.94;;;16.34;46.79
50349;BME280;36250;48.740;22.174;2024-03-02T04:37:22;99965.72;;;16.40;46.29
50349;BME280;36250;48.740;22.174;2024-03-02T04:39:47;99962.91;;;16.45;45.54
50349;BME280;36250;48.740;22.174;2024-03-02T04:42:12;99962.84;;;16.50;44.96
50349;BME280;36250;48.740;22.174;2024-03-02T04:44:38;99959.22;;;16.55;45.14
50349;BME280;36250;48.740;22.174;2024-03-02T04:47:04;99960.56;;;16.57;44.53
50349;BME280;36250;48.740;22.174;2024-03-02T04:49:29;99961.66;;;16.56;45.46
50349;BME280;36250;48.740;22.174;2024-03-02T04:51:55;99961.97;;;16.55;44.68
50349;BME280;36250;48.740;22.174;2024-03-02T04:54:20;99962.72;;;16.60;44.39
50349;BME280;36250;48.740;22.174;2024-03-02T04:56:46;99962.94;;;16.64;43.87
50349;BME280;36250;48.740;22.174;2024-03-02T04:59:17;99955.22;;;16.66;43.36
50349;BME280;36250;48.740;22.174;2024-03-02T05:01:44;99955.72;;;16.68;43.04
50349;BME280;36250;48.740;22.174;2024-03-02T05:04:09;99960.38;;;16.72;42.83
50349;BME280;36250;48.740;22.174;2024-03-02T05:06:39;99966.66;;;16.73;42.42
50349;BME280;36250;48.740;22.174;2024-03-02T05:09:06;99969.41;;;16.73;42.60
50349;BME280;36250;48.740;22.174;2024-03-02T05:11:31;99976.03;;;16.72;42.32
50349;BME280;36250;48.740;22.174;2024-03-02T05:14:03;99977.06;;;16.76;42.46
50349;BME280;36250;48.740;22.174;2024-03-02T05:16:28;99971.81;;;16.79;41.61
50349;BME280;36250;48.740;22.174;2024-03-02T05:18:53;99983.16;;;16.73;41.68
50349;BME280;36250;48.740;22.174;2024-03-02T05:21:19;99989.84;;;16.67;42.03
50349;BME280;36250;48.740;22.174;2024-03-02T05:23:44;99987.75;;;16.59;42.67
50349;BME280;36250;48.740;22.174;2024-03-02T05:26:10;99996.00;;;16.59;43.48
50349;BME280;36250;48.740;22.174;2024-03-02T05:28:38;99992.66;;;16.62;43.70
50349;BME280;36250;48.740;22.174;2024-03-02T05:31:04;99997.91;;;16.58;44.09
50349;BME280;36250;48.740;22.174;2024-03-02T05:33:29;99990.66;;;16.43;44.70
50349;BME280;36250;48.740;22.174;2024-03-02T05:35:56;99992.88;;;16.41;44.61
50349;BME280;36250;48.740;22.174;2024-03-02T05:38:22;99998.94;;;16.38;44.39
50349;BME280;36250;48.740;22.174;2024-03-02T05:40:47;99998.44;;;16.36;44.28
50349;BME280;36250;48.740;22.174;2024-03-02T05:43:13;99998.44;;;16.36;44.08
50349;BME280;36250;48.740;22.174;2024-03-02T05:45:38;99993.47;;;16.38;44.17
50349;BME280;36250;48.740;22.174;2024-03-02T05:48:05;99996.25;;;16.33;44.12
50349;BME280;36250;48.740;22.174;2024-03-02T05:50:31;100001.28;;;16.26;44.84
50349;BME280;36250;48.740;22.174;2024-03-02T05:52:56;100001.91;;;16.23;44.73
50349;BME280;36250;48.740;22.174;2024-03-02T05:55:22;99998.53;;;16.26;44.66
50349;BME280;36250;48.740;22.174;2024-03-02T05:57:47;100006.78;;;16.26;44.86
50349;BME280;36250;48.740;22.174;2024-03-02T06:00:24;100006.00;;;16.26;44.83
50349;BME280;36250;48.740;22.174;2024-03-02T06:02:50;100004.59;;;16.28;44.72
50349;BME280;36250;48.740;22.174;2024-03-02T06:05:15;100002.38;;;16.30;44.30
50349;BME280;36250;48.740;22.174;2024-03-02T06:07:42;100004.22;;;16.35;43.86
50349;BME280;36250;48.740;22.174;2024-03-02T06:10:08;100003.03;;;16.41;44.07
50349;BME280;36250;48.740;22.174;2024-03-02T06:12:34;100012.03;;;16.47;43.73
50349;BME280;36250;48.740;22.174;2024-03-02T06:14:59;100016.66;;;16.51;43.51
50349;BME280;36250;48.740;22.174;2024-03-02T06:17:25;100019.41;;;16.51;43.62
50349;BME280;36250;48.740;22.174;2024-03-02T06:19:50;100019.91;;;16.58;43.54
50349;BME280;36250;48.740;22.174;2024-03-02T06:22:16;100012.47;;;16.59;43.34
50349;BME280;36250;48.740;22.174;2024-03-02T06:24:41;100011.13;;;16.56;43.71
50349;BME280;36250;48.740;22.174;2024-03-02T06:27:07;100018.94;;;16.44;44.36
50349;BME280;36250;48.740;22.174;2024-03-02T06:29:33;100024.22;;;16.40;44.93
50349;BME280;36250;48.740;22.174;2024-03-02T06:31:59;100028.53;;;16.23;45.28
50349;BME280;36250;48.740;22.174;2024-03-02T06:34:24;100028.66;;;16.13;45.58
50349;BME280;36250;48.740;22.174;2024-03-02T06:36:49;100022.44;;;16.02;45.47
50349;BME280;36250;48.740;22.174;2024-03-02T06:39:15;100036.69;;;16.04;45.71
50349;BME280;36250;48.740;22.174;2024-03-02T06:41:40;100031.41;;;15.84;46.38
50349;BME280;36250;48.740;22.174;2024-03-02T06:44:05;100033.13;;;15.75;46.59
50349;BME280;36250;48.740;22.174;2024-03-02T06:46:31;100030.25;;;15.90;46.10
50349;BME280;36250;48.740;22.174;2024-03-02T06:48:57;100028.84;;;15.93;44.97
50349;BME280;36250;48.740;22.174;2024-03-02T06:51:22;100036.38;;;16.11;44.55
50349;BME280;36250;48.740;22.174;2024-03-02T06:53:48;100036.72;;;16.28;43.59
50349;BME280;36250;48.740;22.174;2024-03-02T06:56:13;100038.13;;;16.49;43.97
50349;BME280;36250;48.740;22.174;2024-03-02T06:58:39;100036.50;;;16.72;44.14
50349;BME280;36250;48.740;22.174;2024-03-02T07:01:04;100035.75;;;16.85;43.15
50349;BME280;36250;48.740;22.174;2024-03-02T07:03:30;100035.94;;;16.93;42.95
50349;BME280;36250;48.740;22.174;2024-03-02T07:05:55;100034.84;;;17.13;43.02
50349;BME280;36250;48.740;22.174;2024-03-02T07:08:20;100035.03;;;17.17;41.30
50349;BME280;36250;48.740;22.174;2024-03-02T07:10:46;100031.78;;;17.33;43.21
50349;BME280;36250;48.740;22.174;2024-03-02T07:13:12;100037.63;;;17.45;42.80
50349;BME280;36250;48.740;22.174;2024-03-02T07:15:38;100045.28;;;17.48;42.56
50349;BME280;36250;48.740;22.174;2024-03-02T07:18:32;100051.72;;;17.62;42.50
50349;BME280;36250;48.740;22.174;2024-03-02T07:21:07;100038.97;;;17.66;41.00
50349;BME280;36250;48.740;22.174;2024-03-02T07:23:32;100046.25;;;17.76;40.38
50349;BME280;36250;48.740;22.174;2024-03-02T07:25:57;100049.66;;;17.87;41.51
50349;BME280;36250;48.740;22.174;2024-03-02T07:28:25;100040.69;;;17.95;41.99
50349;BME280;36250;48.740;22.174;2024-03-02T07:31:04;100048.75;;;18.05;41.60
50349;BME280;36250;48.740;22.174;2024-03-02T07:33:30;100044.28;;;18.09;41.72
50349;BME280;36250;48.740;22.174;2024-03-02T07:35:56;100051.84;;;18.17;42.19
50349;BME280;36250;48.740;22.174;2024-03-02T07:38:24;100052.38;;;18.19;40.54
50349;BME280;36250;48.740;22.174;2024-03-02T07:40:49;100056.41;;;18.08;40.69
50349;BME280;36250;48.740;22.174;2024-03-02T07:43:21;100050.56;;;17.96;42.39
50349;BME280;36250;48.740;22.174;2024-03-02T07:45:47;100049.16;;;17.98;42.40
50349;BME280;36250;48.740;22.174;2024-03-02T07:48:13;100046.53;;;18.07;42.82
50349;BME280;36250;48.740;22.174;2024-03-02T07:50:38;100039.38;;;18.06;42.02
50349;BME280;36250;48.740;22.174;2024-03-02T07:53:05;100044.91;;;18.19;42.15
50349;BME280;36250;48.740;22.174;2024-03-02T07:55:30;100045.44;;;18.35;41.42
50349;BME280;36250;48.740;22.174;2024-03-02T07:57:56;100050.75;;;18.45;41.51
50349;BME280;36250;48.740;22.174;2024-03-02T08:00:23;100045.59;;;18.57;40.95
50349;BME280;36250;48.740;22.174;2024-03-02T08:02:49;100047.63;;;18.52;40.51
50349;BME280;36250;48.740;22.174;2024-03-02T08:05:16;100058.66;;;18.65;41.28
50349;BME280;36250;48.740;22.174;2024-03-02T08:07:43;100040.16;;;18.79;41.66
50349;BME280;36250;48.740;22.174;2024-03-02T08:10:09;100051.06;;;18.84;40.35
50349;BME280;36250;48.740;22.174;2024-03-02T08:12:35;100049.66;;;18.87;38.96
50349;BME280;36250;48.740;22.174;2024-03-02T08:15:00;100050.38;;;18.92;39.03
50349;BME280;36250;48.740;22.174;2024-03-02T08:17:26;100057.88;;;19.00;38.11
50349;BME280;36250;48.740;22.174;2024-03-02T08:19:51;100049.38;;;19.11;38.13
50349;BME280;36250;48.740;22.174;2024-03-02T08:22:17;100055.91;;;19.15;38.27
50349;BME280;36250;48.740;22.174;2024-03-02T08:24:42;100060.41;;;19.24;37.97
50349;BME280;36250;48.740;22.174;2024-03-02T08:27:08;100054.06;;;19.24;37.91
50349;BME280;36250;48.740;22.174;2024-03-02T08:29:34;100045.03;;;19.32;37.89
50349;BME280;36250;48.740;22.174;2024-03-02T08:32:00;100042.59;;;19.44;37.88
50349;BME280;36250;48.740;22.174;2024-03-02T08:34:25;100052.56;;;19.53;38.42
50349;BME280;36250;48.740;22.174;2024-03-02T08:36:50;100050.25;;;19.69;38.13
50349;BME280;36250;48.740;22.174;2024-03-02T08:39:16;100051.25;;;19.73;37.73
50349;BME280;36250;48.740;22.174;2024-03-02T08:41:44;100053.63;;;19.88;37.65
50349;BME280;36250;48.740;22.174;2024-03-02T08:44:09;100054.19;;;19.99;37.67
50349;BME280;36250;48.740;22.174;2024-03-02T08:46:35;100059.13;;;20.10;37.88
50349;BME280;36250;48.740;22.174;2024-03-02T08:49:00;100047.19;;;20.23;37.82
50349;BME280;36250;48.740;22.174;2024-03-02T08:51:26;100045.25;;;20.24;37.49
50349;BME280;36250;48.740;22.174;2024-03-02T08:53:51;100049.69;;;20.34;37.73
50349;BME280;36250;48.740;22.174;2024-03-02T08:56:17;100046.59;;;20.35;37.67
50349;BME280;36250;48.740;22.174;2024-03-02T08:58:43;100054.06;;;20.35;37.02
50349;BME280;36250;48.740;22.174;2024-03-02T09:01:09;100051.78;;;20.28;37.26
50349;BME280;36250;48.740;22.174;2024-03-02T09:03:34;100056.03;;;20.34;36.95
50349;BME280;36250;48.740;22.174;2024-03-02T09:06:00;100059.47;;;20.40;36.26
50349;BME280;36250;48.740;22.174;2024-03-02T09:08:26;100052.94;;;20.36;36.10
50349;BME280;36250;48.740;22.174;2024-03-02T09:10:51;100057.84;;;20.39;36.65
50349;BME280;36250;48.740;22.174;2024-03-02T09:13:17;100056.75;;;20.57;36.18
50349;BME280;36250;48.740;22.174;2024-03-02T09:15:43;100060.25;;;20.71;35.95
50349;BME280;36250;48.740;22.174;2024-03-02T09:18:09;100063.22;;;20.83;35.53
50349;BME280;36250;48.740;22.174;2024-03-02T09:20:35;100063.22;;;20.83;34.82
50349;BME280;36250;48.740;22.174;2024-03-02T09:23:00;100065.16;;;20.91;34.40
50349;BME280;36250;48.740;22.174;2024-03-02T09:25:25;100061.97;;;21.06;35.21
50349;BME280;36250;48.740;22.174;2024-03-02T09:27:51;100063.63;;;21.16;35.44
50349;BME280;36250;48.740;22.174;2024-03-02T09:30:16;100058.75;;;21.21;35.65
50349;BME280;36250;48.740;22.174;2024-03-02T09:32:42;100066.28;;;21.46;35.48
50349;BME280;36250;48.740;22.174;2024-03-02T09:35:07;100059.41;;;21.35;33.56
50349;BME280;36250;48.740;22.174;2024-03-02T09:37:32;100061.56;;;21.30;34.48
50349;BME280;36250;48.740;22.174;2024-03-02T09:39:58;100062.19;;;21.27;33.15
50349;BME280;36250;48.740;22.174;2024-03-02T09:42:24;100058.78;;;21.38;32.26
50349;BME280;36250;48.740;22.174;2024-03-02T09:44:51;100054.03;;;21.47;31.30
50349;BME280;36250;48.740;22.174;2024-03-02T09:47:17;100061.38;;;21.52;30.54
50349;BME280;36250;48.740;22.174;2024-03-02T09:49:42;100064.81;;;21.49;30.48
50349;BME280;36250;48.740;22.174;2024-03-02T09:52:10;100057.94;;;21.38;29.93
50349;BME280;36250;48.740;22.174;2024-03-02T09:54:35;100048.97;;;21.32;30.31
50349;BME280;36250;48.740;22.174;2024-03-02T09:57:02;100056.16;;;21.33;30.08
50349;BME280;36250;48.740;22.174;2024-03-02T09:59:28;100056.47;;;21.40;30.68
50349;BME280;36250;48.740;22.174;2024-03-02T10:01:58;100056.81;;;21.47;30.51
50349;BME280;36250;48.740;22.174;2024-03-02T10:04:25;100047.34;;;21.57;29.41
50349;BME280;36250;48.740;22.174;2024-03-02T10:06:51;100048.19;;;21.57;30.06
50349;BME280;36250;48.740;22.174;2024-03-02T10:09:27;100050.81;;;21.54;30.66
50349;BME280;36250;48.740;22.174;2024-03-02T10:12:03;100047.53;;;21.60;30.18
50349;BME280;36250;48.740;22.174;2024-03-02T10:14:29;100045.09;;;21.76;30.56
50349;BME280;36250;48.740;22.174;2024-03-02T10:17:22;100044.25;;;21.93;30.63
50349;BME280;36250;48.740;22.174;2024-03-02T10:19:47;100050.59;;;22.02;29.94
50349;BME280;36250;48.740;22.174;2024-03-02T10:22:13;100043.88;;;22.11;29.95
50349;BME280;36250;48.740;22.174;2024-03-02T10:24:43;100051.25;;;22.07;29.36
50349;BME280;36250;48.740;22.174;2024-03-02T10:27:23;100054.00;;;22.07;29.16
50349;BME280;36250;48.740;22.174;2024-03-02T10:29:49;100042.94;;;22.07;29.14
50349;BME280;36250;48.740;22.174;2024-03-02T10:32:15;100044.41;;;22.05;29.76
50349;BME280;36250;48.740;22.174;2024-03-02T10:34:42;100040.78;;;22.13;30.33
50349;BME280;36250;48.740;22.174;2024-03-02T10:37:11;100041.88;;;22.20;30.52
50349;BME280;36250;48.740;22.174;2024-03-02T10:39:37;100034.56;;;22.16;30.70
50349;BME280;36250;48.740;22.174;2024-03-02T10:42:05;100039.47;;;22.19;30.50
50349;BME280;36250;48.740;22.174;2024-03-02T10:44:31;100042.09;;;22.07;30.54
50349;BME280;36250;48.740;22.174;2024-03-02T10:47:00;100030.47;;;22.22;30.76
50349;BME280;36250;48.740;22.174;2024-03-02T10:49:26;100034.84;;;22.32;30.65
50349;BME280;36250;48.740;22.174;2024-03-02T10:51:51;100026.34;;;22.37;30.74
50349;BME280;36250;48.740;22.174;2024-03-02T10:54:17;100030.44;;;22.31;30.58
50349;BME280;36250;48.740;22.174;2024-03-02T10:56:44;100031.03;;;22.07;30.88
50349;BME280;36250;48.740;22.174;2024-03-02T10:59:27;100031.47;;;22.17;31.13
50349;BME280;36250;48.740;22.174;2024-03-02T11:01:59;100024.16;;;22.13;30.63
50349;BME280;36250;48.740;22.174;2024-03-02T11:04:26;100029.06;;;21.82;31.47
50349;BME280;36250;48.740;22.174;2024-03-02T11:07:04;100021.28;;;21.67;32.12
50349;BME280;36250;48.740;22.174;2024-03-02T11:09:33;100026.31;;;21.82;32.72
50349;BME280;36250;48.740;22.174;2024-03-02T11:12:03;100028.41;;;22.02;32.30
50349;BME280;36250;48.740;22.174;2024-03-02T11:14:30;100024.00;;;22.01;31.72
50349;BME280;36250;48.740;22.174;2024-03-02T11:16:58;100022.41;;;21.83;31.70
50349;BME280;36250;48.740;22.174;2024-03-02T11:19:24;100024.88;;;21.93;31.40
50349;BME280;36250;48.740;22.174;2024-03-02T11:21:50;100022.88;;;22.02;31.78
50349;BME280;36250;48.740;22.174;2024-03-02T11:26:52;100010.06;;;22.27;31.65
50349;BME280;36250;48.740;22.174;2024-03-02T11:32:05;100012.84;;;22.27;31.34
50349;BME280;36250;48.740;22.174;2024-03-02T11:34:35;100012.63;;;22.40;30.94
50349;BME280;36250;48.740;22.174;2024-03-02T11:37:04;100011.38;;;22.20;31.07
50349;BME280;36250;48.740;22.174;2024-03-02T11:39:30;100003.28;;;22.07;31.81
50349;BME280;36250;48.740;22.174;2024-03-02T11:41:56;100010.91;;;22.18;31.86
50349;BME280;36250;48.740;22.174;2024-03-02T11:44:25;100009.63;;;22.16;30.91
50349;BME280;36250;48.740;22.174;2024-03-02T11:47:01;100007.13;;;22.23;31.40
50349;BME280;36250;48.740;22.174;2024-03-02T11:49:40;100014.22;;;22.12;31.23
50349;BME280;36250;48.740;22.174;2024-03-02T11:52:08;100009.25;;;22.26;31.09
50349;BME280;36250;48.740;22.174;2024-03-02T11:54:35;100004.72;;;22.21;30.54
50349;BME280;36250;48.740;22.174;2024-03-02T11:57:02;100002.28;;;22.20;30.56
50349;BME280;36250;48.740;22.174;2024-03-02T11:59:29;100001.41;;;22.28;30.40
50349;BME280;36250;48.740;22.174;2024-03-02T12:01:55;99994.06;;;22.32;29.53
50349;BME280;36250;48.740;22.174;2024-03-02T12:04:21;99996.47;;;22.42;28.50
50349;BME280;36250;48.740;22.174;2024-03-02T12:06:54;100005.09;;;22.49;27.86
50349;BME280;36250;48.740;22.174;2024-03-02T12:09:21;99995.88;;;22.57;27.87
50349;BME280;36250;48.740;22.174;2024-03-02T12:11:46;99999.66;;;22.61;28.86
50349;BME280;36250;48.740;22.174;2024-03-02T12:14:12;100002.19;;;22.75;27.96
50349;BME280;36250;48.740;22.174;2024-03-02T12:16:44;100001.25;;;22.71;28.35
50349;BME280;36250;48.740;22.174;2024-03-02T12:19:09;99996.31;;;22.76;28.62
50349;BME280;36250;48.740;22.174;2024-03-02T12:21:34;100002.91;;;22.93;28.23
50349;BME280;36250;48.740;22.174;2024-03-02T12:24:01;100005.94;;;23.00;27.36
50349;BME280;36250;48.740;22.174;2024-03-02T12:26:26;99998.72;;;23.07;27.23
50349;BME280;36250;48.740;22.174;2024-03-02T12:28:52;99991.72;;;23.22;27.71
50349;BME280;36250;48.740;22.174;2024-03-02T12:31:17;99993.91;;;23.16;27.44
50349;BME280;36250;48.740;22.174;2024-03-02T12:33:43;99992.59;;;23.14;27.66
50349;BME280;36250;48.740;22.174;2024-03-02T12:36:13;99992.59;;;23.55;27.06
50349;BME280;36250;48.740;22.174;2024-03-02T12:38:43;99987.59;;;24.26;27.01
50349;BME280;36250;48.740;22.174;2024-03-02T12:41:09;99993.41;;;25.33;25.55
50349;BME280;36250;48.740;22.174;2024-03-02T12:43:34;99991.63;;;26.24;24.58
50349;BME280;36250;48.740;22.174;2024-03-02T12:45:59;99991.97;;;26.23;24.15
50349;BME280;36250;48.740;22.174;2024-03-02T12:48:25;99992.66;;;26.04;23.67
50349;BME280;36250;48.740;22.174;2024-03-02T12:50:51;99986.84;;;26.40;23.74